Time;durP1;ratioP1;P1;durP2;ratioP2;P2;SDS_P1;SDS_P2;PMS_P1;PMS_P2;Temp;Humidity;BMP_temperature;BMP_pressure;BME280_temperature;BME280_humidity;BME280_pressure;Samples;Min_cycle;Max_cycle;Signal;HPM_P1;HPM_P2
2023/01/27 00:00:53;;;;;;;10.10;2.10;;;5.60;99.90;;;;;;5020892;28;20307;-59
2023/01/27 00:03:20;;;;;;;8.03;2.43;;;5.60;99.90;;;;;;5034993;28;20545;-60
2023/01/27 00:05:47;;;;;;;6.47;1.73;;;5.60;99.90;;;;;;5031331;28;20204;-60
2023/01/27 00:08:14;;;;;;;5.03;1.80;;;5.60;99.90;;;;;;5032459;28;20200;-59
2023/01/27 00:10:42;;;;;;;8.73;2.80;;;5.60;99.90;;;;;;5033933;28;20664;-59
2023/01/27 00:13:27;;;;;;;5.83;1.87;;;5.60;99.90;;;;;;5034023;28;20542;-59
2023/01/27 00:15:54;;;;;;;12.33;2.37;;;5.60;99.90;;;;;;5032698;28;20204;-59
2023/01/27 00:18:22;;;;;;;10.53;2.20;;;5.50;99.90;;;;;;5035302;28;20193;-59
2023/01/27 00:26:20;;;;;;;6.03;1.90;;;5.40;99.90;;;;;;5036121;28;20200;-60
2023/01/27 00:28:47;;;;;;;11.87;2.20;;;5.40;99.90;;;;;;5036308;28;20701;-58
2023/01/27 00:34:07;;;;;;;4.80;1.97;;;5.40;99.90;;;;;;5025895;28;20660;-60
2023/01/27 00:36:39;;;;;;;10.77;2.23;;;5.40;99.90;;;;;;5031227;28;20278;-59
2023/01/27 00:39:08;;;;;;;7.37;2.20;;;5.40;99.90;;;;;;5031681;28;20204;-59
2023/01/27 00:41:35;;;;;;;13.83;2.60;;;5.40;99.90;;;;;;5034591;28;20803;-59
2023/01/27 00:44:03;;;;;;;7.57;1.90;;;5.40;99.90;;;;;;5034959;28;20200;-59
2023/01/27 00:46:30;;;;;;;4.77;1.90;;;5.40;99.90;;;;;;5038059;28;20216;-60
2023/01/27 00:48:57;;;;;;;5.73;2.30;;;5.30;99.90;;;;;;5031766;28;20274;-59
2023/01/27 00:51:24;;;;;;;7.40;2.30;;;5.30;99.90;;;;;;5034869;28;20309;-62
2023/01/27 00:53:51;;;;;;;4.63;2.00;;;5.30;99.90;;;;;;5037696;28;20206;-59
2023/01/27 00:56:18;;;;;;;13.03;2.40;;;5.20;99.90;;;;;;5040005;28;20219;-59
2023/01/27 00:58:44;;;;;;;5.13;2.10;;;5.30;99.90;;;;;;5036169;28;20463;-59
2023/01/27 01:01:14;;;;;;;6.07;2.67;;;5.20;99.90;;;;;;5038367;28;20859;-61
2023/01/27 01:03:41;;;;;;;8.80;2.97;;;5.20;99.90;;;;;;5037990;28;20204;-59
2023/01/27 01:06:11;;;;;;;5.03;2.30;;;5.10;99.90;;;;;;5036334;28;20518;-59
2023/01/27 01:08:38;;;;;;;4.37;2.50;;;5.10;99.90;;;;;;5035959;28;20292;-59
2023/01/27 01:11:07;;;;;;;3.60;2.43;;;5.20;99.90;;;;;;5038836;28;20239;-60
2023/01/27 01:13:34;;;;;;;5.33;2.20;;;5.10;99.90;;;;;;5037376;28;20280;-59
2023/01/27 01:16:10;;;;;;;7.60;2.60;;;5.20;99.90;;;;;;5038728;28;20218;-60
2023/01/27 01:18:38;;;;;;;4.77;2.27;;;5.10;99.90;;;;;;5034251;28;20301;-59
2023/01/27 01:21:05;;;;;;;3.93;1.87;;;5.10;99.90;;;;;;5031254;28;20201;-62
2023/01/27 01:23:36;;;;;;;8.40;2.77;;;5.10;99.90;;;;;;5034519;28;20213;-62
2023/01/27 01:26:03;;;;;;;8.20;2.50;;;5.00;99.90;;;;;;5038025;28;20201;-61
2023/01/27 01:28:29;;;;;;;6.67;2.43;;;5.00;99.90;;;;;;5034881;28;20645;-59
2023/01/27 01:31:03;;;;;;;7.53;2.23;;;5.00;99.90;;;;;;5028903;28;20567;-59
2023/01/27 01:33:30;;;;;;;8.60;2.40;;;5.00;99.90;;;;;;5035509;28;20679;-59
2023/01/27 01:36:02;;;;;;;9.97;2.80;;;5.00;99.90;;;;;;5030865;28;20220;-63
2023/01/27 01:38:29;;;;;;;10.03;2.57;;;5.00;99.90;;;;;;5029768;28;20683;-60
2023/01/27 01:40:56;;;;;;;11.67;2.50;;;4.90;99.90;;;;;;5036535;28;20202;-60
2023/01/27 01:43:25;;;;;;;7.30;2.87;;;4.90;99.90;;;;;;5036086;28;20335;-59
2023/01/27 01:45:54;;;;;;;9.07;2.60;;;5.00;99.90;;;;;;5033516;28;20292;-63
2023/01/27 01:48:36;;;;;;;5.87;2.43;;;5.00;99.90;;;;;;5035183;28;20281;-63
2023/01/27 01:51:09;;;;;;;5.07;2.10;;;5.00;99.90;;;;;;5034305;28;20571;-63
2023/01/27 01:53:42;;;;;;;6.90;2.10;;;5.00;99.90;;;;;;5035759;28;20282;-63
2023/01/27 01:56:17;;;;;;;5.10;2.60;;;5.00;99.90;;;;;;5036842;28;20496;-62
2023/01/27 01:58:45;;;;;;;5.87;2.40;;;4.80;99.90;;;;;;5033332;28;20672;-60
2023/01/27 02:01:14;;;;;;;6.47;2.50;;;4.90;99.90;;;;;;5033580;28;20280;-60
2023/01/27 02:03:46;;;;;;;4.33;2.40;;;4.90;99.90;;;;;;5035800;28;20286;-59
2023/01/27 02:06:13;;;;;;;5.80;2.43;;;4.90;99.90;;;;;;5035567;28;20195;-60
2023/01/27 02:08:46;;;;;;;7.60;2.70;;;4.80;99.90;;;;;;5030924;28;20281;-59
2023/01/27 02:11:13;;;;;;;11.67;3.30;;;4.80;99.90;;;;;;5033404;28;20201;-61
2023/01/27 02:13:42;;;;;;;6.87;2.60;;;4.80;99.90;;;;;;5034592;28;20744;-61
2023/01/27 02:16:10;;;;;;;8.67;3.17;;;4.80;99.90;;;;;;5033041;28;20218;-60
2023/01/27 02:18:41;;;;;;;5.00;2.30;;;4.80;99.90;;;;;;5031723;28;20220;-61
2023/01/27 02:21:08;;;;;;;5.60;2.60;;;4.80;99.90;;;;;;5034117;28;20202;-61
2023/01/27 02:23:55;;;;;;;7.37;2.37;;;4.70;99.90;;;;;;5032086;28;20552;-60
2023/01/27 02:26:33;;;;;;;5.53;2.60;;;4.80;99.90;;;;;;5029413;28;20205;-62
2023/01/27 02:29:06;;;;;;;14.10;3.37;;;4.90;99.90;;;;;;5032753;28;20587;-60
2023/01/27 02:31:33;;;;;;;6.63;3.13;;;4.90;99.90;;;;;;5024160;28;20201;-66
2023/01/27 02:34:18;;;;;;;7.33;2.80;;;4.90;99.90;;;;;;5028209;28;20201;-61
2023/01/27 02:36:54;;;;;;;5.83;2.30;;;4.80;99.90;;;;;;5023077;28;20221;-62
2023/01/27 02:39:25;;;;;;;4.80;2.40;;;4.90;99.90;;;;;;5026961;28;20197;-61
2023/01/27 02:41:55;;;;;;;6.67;2.70;;;4.80;99.90;;;;;;5023458;28;20217;-65
2023/01/27 02:44:22;;;;;;;9.90;3.33;;;4.80;99.90;;;;;;5024359;28;20220;-62
2023/01/27 02:46:49;;;;;;;6.93;2.70;;;4.80;99.90;;;;;;5025886;28;20296;-61
2023/01/27 02:49:16;;;;;;;5.73;3.17;;;4.90;99.90;;;;;;5028203;28;20222;-62
2023/01/27 02:51:43;;;;;;;10.70;4.07;;;4.80;99.90;;;;;;5024475;28;20638;-62
2023/01/27 02:54:09;;;;;;;4.67;2.90;;;4.80;99.90;;;;;;5027186;28;20691;-62
2023/01/27 02:56:37;;;;;;;5.93;3.47;;;4.70;99.90;;;;;;5023690;28;20767;-62
2023/01/27 02:59:05;;;;;;;9.33;3.50;;;4.80;99.90;;;;;;5024878;28;20239;-62
2023/01/27 03:01:32;;;;;;;8.30;3.77;;;4.80;99.90;;;;;;5021677;28;20657;-61
2023/01/27 03:03:59;;;;;;;7.87;3.70;;;4.70;99.90;;;;;;5025750;28;21338;-62
2023/01/27 03:06:25;;;;;;;7.13;3.80;;;4.70;99.90;;;;;;5024313;28;20230;-62
2023/01/27 03:08:52;;;;;;;7.77;3.87;;;4.80;99.90;;;;;;5025382;28;20206;-63
2023/01/27 03:14:06;;;;;;;7.93;3.97;;;4.80;99.90;;;;;;5025760;28;20194;-61
2023/01/27 03:19:18;;;;;;;7.73;3.97;;;4.70;99.90;;;;;;5025720;28;20228;-62
2023/01/27 03:21:49;;;;;;;13.30;4.70;;;4.80;99.90;;;;;;5023515;28;20257;-60
2023/01/27 03:24:16;;;;;;;8.20;4.67;;;4.70;99.90;;;;;;5023953;28;20202;-68
2023/01/27 03:26:43;;;;;;;8.53;4.73;;;4.80;99.90;;;;;;5024109;28;20203;-62
2023/01/27 03:31:55;;;;;;;11.10;4.73;;;4.80;99.90;;;;;;5018872;28;20201;-60
2023/01/27 03:34:22;;;;;;;9.80;4.63;;;4.80;99.90;;;;;;5029035;28;20609;-60
2023/01/27 03:47:51;;;;;;;9.63;5.07;;;4.70;99.90;;;;;;5021283;28;20209;-62
2023/01/27 03:50:18;;;;;;;11.30;5.60;;;4.70;99.90;;;;;;5023071;28;20224;-61
2023/01/27 03:53:01;;;;;;;11.27;5.20;;;4.70;99.90;;;;;;5030291;28;20207;-61
2023/01/27 03:55:30;;;;;;;15.47;5.13;;;4.70;99.90;;;;;;5030294;28;20615;-61
2023/01/27 03:58:04;;;;;;;9.20;4.70;;;4.60;99.90;;;;;;5032916;28;22326;-60
2023/01/27 04:00:31;;;;;;;9.63;5.17;;;4.60;99.90;;;;;;5032612;28;20712;-62
2023/01/27 04:08:29;;;;;;;12.13;5.57;;;4.60;99.90;;;;;;5033072;28;20353;-59
2023/01/27 04:13:46;;;;;;;12.27;6.53;;;4.60;99.90;;;;;;5035886;28;20229;-61
2023/01/27 04:16:16;;;;;;;9.57;5.97;;;4.70;99.90;;;;;;5039252;28;20580;-59
2023/01/27 04:18:45;;;;;;;12.30;5.70;;;4.60;99.90;;;;;;5037984;28;20608;-59
2023/01/27 04:21:13;;;;;;;9.20;4.87;;;4.60;99.90;;;;;;5039190;28;20212;-59
2023/01/27 04:23:40;;;;;;;17.47;6.63;;;4.50;99.90;;;;;;5038797;28;20227;-60
2023/01/27 04:26:07;;;;;;;10.77;5.57;;;4.60;99.90;;;;;;5040193;28;20218;-60
2023/01/27 04:28:33;;;;;;;9.80;5.90;;;4.60;99.90;;;;;;5038474;28;20202;-60
2023/01/27 04:31:10;;;;;;;9.87;6.07;;;4.60;99.90;;;;;;5036829;28;20218;-60
2023/01/27 04:33:37;;;;;;;9.70;6.20;;;4.60;99.90;;;;;;5039910;28;20285;-63
2023/01/27 04:36:04;;;;;;;11.17;6.97;;;4.60;99.90;;;;;;5039337;28;20238;-61
2023/01/27 04:38:31;;;;;;;13.70;7.13;;;4.60;99.90;;;;;;5040700;28;20528;-60
2023/01/27 04:40:58;;;;;;;11.87;7.03;;;4.70;99.90;;;;;;5040570;28;20255;-60
2023/01/27 04:43:25;;;;;;;12.23;7.20;;;4.60;99.90;;;;;;5038436;28;21086;-60
2023/01/27 04:45:52;;;;;;;11.23;6.30;;;4.50;99.90;;;;;;5038351;28;20651;-59
2023/01/27 04:48:19;;;;;;;14.43;7.77;;;4.50;99.90;;;;;;5036492;28;20379;-67
2023/01/27 04:50:46;;;;;;;12.20;7.80;;;4.50;99.90;;;;;;5035512;28;20662;-62
2023/01/27 04:53:13;;;;;;;13.37;8.07;;;4.50;99.90;;;;;;5038471;28;20196;-60
2023/01/27 04:55:44;;;;;;;13.17;7.43;;;4.50;99.90;;;;;;5040496;28;20252;-60
2023/01/27 04:58:12;;;;;;;16.97;7.77;;;4.60;99.90;;;;;;5039378;28;20277;-60
2023/01/27 05:00:39;;;;;;;16.03;7.70;;;4.60;99.90;;;;;;5038946;28;20719;-60
2023/01/27 05:03:08;;;;;;;14.63;7.97;;;4.60;99.90;;;;;;5037430;28;20218;-60
2023/01/27 05:05:35;;;;;;;14.97;7.57;;;4.60;99.90;;;;;;5037896;28;20214;-60
2023/01/27 05:08:06;;;;;;;15.40;7.63;;;4.60;99.90;;;;;;5039355;28;20712;-60
2023/01/27 05:10:33;;;;;;;11.63;7.03;;;4.70;99.90;;;;;;5040142;28;20309;-60
2023/01/27 05:13:01;;;;;;;12.30;7.27;;;4.60;99.90;;;;;;5039225;28;20314;-60
2023/01/27 05:15:28;;;;;;;12.40;7.57;;;4.60;99.90;;;;;;5039557;28;20229;-59
2023/01/27 05:17:55;;;;;;;14.03;8.00;;;4.70;99.90;;;;;;5038688;28;20219;-60
2023/01/27 05:20:22;;;;;;;12.90;7.37;;;4.70;99.90;;;;;;5038416;28;20684;-60
2023/01/27 05:22:50;;;;;;;10.37;6.20;;;4.60;99.90;;;;;;5037489;28;20670;-60
2023/01/27 05:25:17;;;;;;;13.30;6.53;;;4.70;99.90;;;;;;5038918;28;20577;-60
2023/01/27 05:27:44;;;;;;;8.93;5.57;;;4.60;99.90;;;;;;5038323;28;20209;-65
2023/01/27 05:30:11;;;;;;;11.10;6.03;;;4.70;99.90;;;;;;5038597;28;20213;-60
2023/01/27 05:32:38;;;;;;;8.53;5.43;;;4.80;99.90;;;;;;5039515;28;20207;-60
2023/01/27 05:35:05;;;;;;;8.17;5.40;;;4.80;99.90;;;;;;5037244;28;20289;-60
2023/01/27 05:37:32;;;;;;;9.93;5.17;;;4.80;99.90;;;;;;5039748;28;20327;-60
2023/01/27 05:39:59;;;;;;;8.50;5.30;;;4.80;99.90;;;;;;5037417;28;20220;-60
2023/01/27 05:42:25;;;;;;;10.27;5.47;;;4.90;99.90;;;;;;5022421;28;20611;-60
2023/01/27 05:44:52;;;;;;;9.20;5.00;;;4.80;99.90;;;;;;5037935;28;20240;-61
2023/01/27 05:47:19;;;;;;;7.87;4.90;;;4.90;99.90;;;;;;5039131;28;20230;-62
2023/01/27 05:49:46;;;;;;;6.70;4.83;;;4.90;99.90;;;;;;5035902;28;20202;-62
2023/01/27 05:52:12;;;;;;;9.00;4.90;;;4.90;99.90;;;;;;5038830;28;20209;-62
2023/01/27 05:54:39;;;;;;;7.47;4.63;;;4.90;99.90;;;;;;5036308;28;20654;-62
2023/01/27 05:57:06;;;;;;;8.77;5.37;;;4.90;99.90;;;;;;5035005;28;20197;-62
2023/01/27 05:59:33;;;;;;;8.37;4.80;;;4.90;99.90;;;;;;5050426;28;20702;-62
2023/01/27 06:02:00;;;;;;;6.50;4.57;;;5.00;99.90;;;;;;5032965;28;20317;-60
2023/01/27 06:04:26;;;;;;;8.13;4.53;;;4.90;99.90;;;;;;5030191;28;20205;-61
2023/01/27 06:06:53;;;;;;;6.47;3.93;;;4.90;99.90;;;;;;5022745;28;20211;-60
2023/01/27 06:09:20;;;;;;;6.77;4.47;;;4.90;99.90;;;;;;5033073;28;20542;-61
2023/01/27 06:11:46;;;;;;;6.93;4.37;;;4.90;99.90;;;;;;5033192;28;20216;-60
2023/01/27 06:14:14;;;;;;;8.23;4.57;;;4.90;99.90;;;;;;5037073;28;20201;-60
2023/01/27 06:16:42;;;;;;;9.47;4.40;;;4.90;99.90;;;;;;5033389;28;20283;-60
2023/01/27 06:19:09;;;;;;;5.97;4.07;;;5.00;99.90;;;;;;5037457;28;20600;-60
2023/01/27 06:21:36;;;;;;;5.57;4.10;;;4.90;99.90;;;;;;5034872;28;20204;-60
2023/01/27 06:24:03;;;;;;;7.63;3.80;;;4.90;99.90;;;;;;5039123;28;20217;-69
2023/01/27 06:26:30;;;;;;;5.60;4.27;;;5.00;99.90;;;;;;5034461;28;20212;-60
2023/01/27 06:28:57;;;;;;;7.53;4.53;;;4.90;99.90;;;;;;5035400;28;20206;-68
2023/01/27 06:31:24;;;;;;;5.73;4.23;;;5.00;99.90;;;;;;5034122;28;20254;-63
2023/01/27 06:33:51;;;;;;;5.60;4.00;;;5.00;99.90;;;;;;5036067;28;20202;-62
2023/01/27 06:36:20;;;;;;;6.30;3.73;;;5.00;99.90;;;;;;5036315;28;20236;-62
2023/01/27 06:38:48;;;;;;;7.53;3.70;;;5.10;99.90;;;;;;5037638;28;20224;-62
2023/01/27 06:41:15;;;;;;;5.83;4.17;;;5.00;99.90;;;;;;5036041;28;20214;-62
2023/01/27 06:43:42;;;;;;;6.13;4.63;;;5.00;99.90;;;;;;5035186;28;20208;-62
2023/01/27 06:46:08;;;;;;;6.00;3.90;;;5.10;99.90;;;;;;5035940;28;20207;-62
2023/01/27 06:48:36;;;;;;;7.73;4.77;;;5.00;99.90;;;;;;5033886;28;20316;-63
2023/01/27 06:51:03;;;;;;;7.10;4.27;;;5.00;99.90;;;;;;5032790;28;20268;-63
2023/01/27 06:53:31;;;;;;;6.37;3.87;;;5.10;99.90;;;;;;5026667;28;20206;-62
2023/01/27 06:55:59;;;;;;;7.57;4.17;;;5.10;99.90;;;;;;5025139;28;20228;-61
2023/01/27 06:58:27;;;;;;;6.43;4.33;;;5.00;99.90;;;;;;4661688;28;9999629;-60
2023/01/27 07:00:54;;;;;;;6.03;3.53;;;5.00;99.90;;;;;;5013258;28;20618;-63
2023/01/27 07:03:21;;;;;;;4.33;3.40;;;5.10;99.90;;;;;;5021804;28;20743;-63
2023/01/27 07:05:48;;;;;;;6.43;4.13;;;5.10;99.90;;;;;;5019221;28;20195;-62
2023/01/27 07:08:15;;;;;;;5.20;3.50;;;5.00;99.90;;;;;;5020473;28;20207;-63
2023/01/27 07:10:42;;;;;;;5.07;3.57;;;5.10;99.90;;;;;;5026955;28;20300;-63
2023/01/27 07:13:11;;;;;;;4.37;3.40;;;5.00;99.90;;;;;;5024577;28;20206;-62
2023/01/27 07:15:38;;;;;;;4.83;3.77;;;5.00;99.90;;;;;;5021310;28;20198;-63
2023/01/27 07:18:05;;;;;;;6.50;3.70;;;5.00;99.90;;;;;;5020384;28;20196;-62
2023/01/27 07:20:33;;;;;;;5.87;3.70;;;5.10;99.90;;;;;;5031775;28;20290;-64
2023/01/27 07:23:02;;;;;;;4.73;3.07;;;5.10;99.90;;;;;;5029931;28;20216;-63
2023/01/27 07:25:30;;;;;;;7.57;3.40;;;5.10;99.90;;;;;;5029492;28;20221;-63
2023/01/27 07:27:58;;;;;;;4.93;3.37;;;5.10;99.90;;;;;;5030334;28;20304;-65
2023/01/27 07:30:26;;;;;;;4.10;3.20;;;5.10;99.90;;;;;;5025490;28;20299;-64
2023/01/27 07:32:54;;;;;;;4.33;3.30;;;5.20;99.90;;;;;;5028108;28;20230;-64
2023/01/27 07:35:22;;;;;;;7.03;3.27;;;5.10;99.90;;;;;;5032137;28;20257;-63
2023/01/27 07:37:48;;;;;;;5.90;3.23;;;5.20;99.90;;;;;;5021510;28;20201;-62
2023/01/27 07:40:15;;;;;;;6.77;3.60;;;5.10;99.90;;;;;;5022162;28;20886;-63
2023/01/27 07:42:42;;;;;;;4.97;3.10;;;5.10;99.90;;;;;;5032664;28;20210;-63
2023/01/27 07:45:09;;;;;;;4.47;2.83;;;5.20;99.90;;;;;;5027886;28;20214;-63
2023/01/27 07:47:36;;;;;;;6.03;3.13;;;5.10;99.90;;;;;;5028303;28;20206;-62
2023/01/27 07:50:03;;;;;;;3.80;2.70;;;5.20;99.90;;;;;;5028792;28;20226;-67
2023/01/27 07:52:30;;;;;;;5.03;2.63;;;5.10;99.90;;;;;;5028656;28;20309;-63
2023/01/27 07:54:57;;;;;;;5.60;3.43;;;5.20;99.90;;;;;;5027670;28;20211;-63
2023/01/27 07:57:24;;;;;;;4.30;3.20;;;5.10;99.90;;;;;;5028553;28;20681;-62
2023/01/27 07:59:54;;;;;;;7.27;3.63;;;5.10;99.90;;;;;;5030232;28;20200;-63
2023/01/27 08:02:25;;;;;;;4.00;2.70;;;5.10;99.90;;;;;;5029435;28;20654;-63
2023/01/27 08:04:51;;;;;;;5.30;3.10;;;5.10;99.90;;;;;;5030053;28;21175;-63
2023/01/27 08:07:19;;;;;;;5.03;3.10;;;5.10;99.90;;;;;;5030884;28;20219;-63
2023/01/27 08:09:46;;;;;;;3.40;2.90;;;5.10;99.90;;;;;;5024365;28;20216;-63
2023/01/27 08:12:13;;;;;;;4.47;2.97;;;5.10;99.90;;;;;;5030005;28;20745;-63
2023/01/27 08:14:40;;;;;;;3.50;3.20;;;5.20;99.90;;;;;;5026174;28;20210;-62
2023/01/27 08:17:07;;;;;;;4.60;3.20;;;5.20;99.90;;;;;;5028254;28;20212;-61
2023/01/27 08:19:33;;;;;;;5.43;3.53;;;5.20;99.90;;;;;;5019951;28;20210;-61
2023/01/27 08:22:00;;;;;;;6.10;3.10;;;5.30;99.90;;;;;;5026303;28;20215;-62
2023/01/27 08:24:27;;;;;;;6.87;3.20;;;5.30;99.90;;;;;;5023758;28;20717;-61
2023/01/27 08:26:55;;;;;;;3.47;3.03;;;5.30;99.90;;;;;;5024976;28;20197;-59
2023/01/27 08:29:21;;;;;;;4.43;3.03;;;5.40;99.90;;;;;;5021238;28;20234;-63
2023/01/27 08:31:48;;;;;;;6.33;3.27;;;5.30;99.90;;;;;;5028853;28;20321;-62
2023/01/27 08:34:15;;;;;;;5.53;2.90;;;5.30;99.90;;;;;;5022772;28;20208;-61
2023/01/27 08:36:42;;;;;;;4.73;3.53;;;5.20;99.90;;;;;;5029582;28;20597;-60
2023/01/27 08:39:10;;;;;;;4.03;3.00;;;5.20;99.90;;;;;;5024991;28;20393;-61
2023/01/27 08:41:37;;;;;;;5.20;3.23;;;5.10;99.90;;;;;;5021940;28;20222;-62
2023/01/27 08:44:04;;;;;;;3.77;3.00;;;5.20;99.90;;;;;;5027470;28;20721;-58
2023/01/27 08:46:31;;;;;;;4.87;3.00;;;5.10;99.90;;;;;;5027671;28;20287;-62
2023/01/27 08:48:58;;;;;;;5.10;2.93;;;5.10;99.90;;;;;;5024815;28;20610;-62
2023/01/27 08:51:25;;;;;;;5.07;3.27;;;5.10;99.90;;;;;;5024193;28;20322;-62
2023/01/27 08:53:51;;;;;;;4.67;2.97;;;5.00;99.90;;;;;;5027938;28;20686;-60
2023/01/27 08:56:18;;;;;;;4.93;3.37;;;5.00;99.90;;;;;;5026955;28;20591;-59
2023/01/27 08:58:47;;;;;;;5.43;3.60;;;5.00;99.90;;;;;;5029990;28;20225;-61
2023/01/27 09:01:15;;;;;;;4.17;3.13;;;5.20;99.90;;;;;;5028563;28;20207;-59
2023/01/27 09:03:42;;;;;;;3.77;2.70;;;5.20;99.90;;;;;;5033777;28;20199;-60
2023/01/27 09:06:11;;;;;;;3.80;3.20;;;5.10;99.90;;;;;;5026835;28;20211;-60
2023/01/27 09:08:40;;;;;;;4.13;2.43;;;5.00;99.90;;;;;;5033696;28;20296;-59
2023/01/27 09:11:12;;;;;;;7.50;3.90;;;5.10;99.90;;;;;;5010785;28;20290;-61
2023/01/27 09:13:39;;;;;;;6.10;3.00;;;5.20;99.90;;;;;;5024491;28;20710;-58
2023/01/27 09:16:07;;;;;;;3.90;2.33;;;5.20;99.90;;;;;;5027588;28;20292;-59
2023/01/27 09:18:34;;;;;;;2.87;2.50;;;5.00;99.90;;;;;;5025611;28;20565;-60
2023/01/27 09:21:05;;;;;;;3.20;2.27;;;5.00;99.90;;;;;;5023224;28;20199;-61
2023/01/27 09:23:33;;;;;;;2.60;2.27;;;5.00;99.90;;;;;;5025177;28;20566;-60
2023/01/27 09:26:00;;;;;;;2.83;2.30;;;4.90;99.90;;;;;;5021517;28;20659;-60
2023/01/27 09:28:27;;;;;;;3.73;2.33;;;4.90;99.90;;;;;;5025148;28;20262;-59
2023/01/27 09:30:58;;;;;;;2.47;2.27;;;5.00;99.90;;;;;;5023316;28;20246;-61
2023/01/27 09:33:25;;;;;;;4.53;2.07;;;4.90;99.90;;;;;;5020093;28;20236;-60
2023/01/27 09:36:05;;;;;;;4.80;2.30;;;4.80;99.90;;;;;;5028032;28;20238;-62
2023/01/27 09:38:48;;;;;;;3.10;2.30;;;4.80;99.90;;;;;;5021954;28;20666;-62
2023/01/27 09:41:44;;;;;;;2.30;2.10;;;4.90;99.90;;;;;;5028608;28;20202;-60
2023/01/27 09:45:05;;;;;;;3.57;2.20;;;5.00;99.90;;;;;;5049184;28;20261;-61
2023/01/27 09:48:06;;;;;;;2.27;2.03;;;5.00;99.90;;;;;;4985659;28;20207;-59
2023/01/27 09:50:44;;;;;;;3.23;2.37;;;5.00;99.90;;;;;;5017823;28;20831;-60
2023/01/27 09:53:38;;;;;;;2.53;1.93;;;4.90;99.90;;;;;;5019390;28;20220;-61
2023/01/27 09:56:39;;;;;;;3.13;2.10;;;5.10;99.90;;;;;;5025958;28;20654;-62
2023/01/27 09:59:24;;;;;;;2.60;1.97;;;4.90;99.90;;;;;;5024490;28;20361;-59
2023/01/27 10:02:14;;;;;;;2.10;1.80;;;4.90;99.90;;;;;;5025012;28;20201;-67
2023/01/27 10:05:19;;;;;;;2.30;1.80;;;5.00;99.90;;;;;;5021718;28;20260;-61
2023/01/27 10:08:07;;;;;;;2.40;2.00;;;5.00;99.90;;;;;;5022350;28;20200;-62
2023/01/27 10:10:37;;;;;;;4.57;2.40;;;5.10;99.90;;;;;;5027319;28;20575;-59
2023/01/27 10:13:30;;;;;;;2.13;1.93;;;5.10;99.90;;;;;;5012136;28;20225;-60
2023/01/27 10:16:19;;;;;;;2.83;2.13;;;5.10;99.90;;;;;;5020553;28;20677;-60
2023/01/27 10:19:22;;;;;;;3.07;2.37;;;5.00;99.90;;;;;;5019688;28;20205;-60
2023/01/27 10:22:04;;;;;;;4.93;1.90;;;5.10;99.90;;;;;;5039416;28;20210;-59
2023/01/27 10:24:30;;;;;;;4.20;2.33;;;5.00;99.90;;;;;;5030789;28;20606;-61
2023/01/27 10:27:07;;;;;;;3.80;2.60;;;4.90;99.90;;;;;;5025077;28;20208;-60
2023/01/27 10:30:03;;;;;;;2.77;2.50;;;5.00;99.90;;;;;;5018304;28;20205;-61
2023/01/27 10:32:49;;;;;;;2.50;2.30;;;5.00;99.90;;;;;;5016196;28;20322;-60
2023/01/27 10:35:19;;;;;;;2.97;2.17;;;5.00;99.90;;;;;;5024978;28;20197;-61
2023/01/27 10:38:33;;;;;;;3.20;2.43;;;4.90;99.90;;;;;;5026796;28;20197;-60
2023/01/27 10:41:25;;;;;;;4.57;2.53;;;5.10;99.90;;;;;;5012076;28;20662;-60
2023/01/27 10:44:02;;;;;;;3.77;2.50;;;5.10;99.90;;;;;;5028318;28;20712;-61
2023/01/27 10:46:46;;;;;;;3.23;2.43;;;5.00;99.90;;;;;;5019235;28;20195;-60
2023/01/27 10:49:35;;;;;;;2.77;2.17;;;5.10;99.90;;;;;;5022971;28;20193;-60
2023/01/27 10:52:15;;;;;;;3.43;2.20;;;5.10;99.90;;;;;;5024627;28;20214;-60
2023/01/27 10:54:54;;;;;;;3.10;2.50;;;5.00;99.90;;;;;;5019664;28;20204;-59
2023/01/27 10:57:32;;;;;;;3.20;2.70;;;4.90;99.90;;;;;;5017652;28;20263;-59
2023/01/27 11:00:16;;;;;;;3.50;2.83;;;5.00;99.90;;;;;;5025835;28;20715;-60
2023/01/27 11:03:14;;;;;;;2.43;2.20;;;5.00;99.90;;;;;;5027313;28;20207;-58
2023/01/27 11:05:47;;;;;;;2.70;2.30;;;5.10;99.90;;;;;;5015250;28;20664;-60
2023/01/27 11:08:21;;;;;;;5.63;2.40;;;5.00;99.90;;;;;;5024697;28;21275;-58
2023/01/27 11:13:38;;;;;;;2.60;2.40;;;5.10;99.90;;;;;;5024472;28;20296;-61
2023/01/27 11:16:14;;;;;;;3.33;2.30;;;5.20;99.90;;;;;;5026080;28;20326;-58
2023/01/27 11:18:44;;;;;;;2.80;2.50;;;5.10;99.90;;;;;;5022170;28;20214;-59
2023/01/27 11:21:19;;;;;;;2.60;2.23;;;5.20;99.90;;;;;;5019631;28;20738;-65
2023/01/27 11:23:54;;;;;;;4.60;2.17;;;5.20;99.90;;;;;;5027271;28;20238;-61
2023/01/27 11:26:40;;;;;;;3.30;2.23;;;5.10;99.90;;;;;;5024702;28;20292;-61
2023/01/27 11:29:46;;;;;;;4.73;2.17;;;5.20;99.90;;;;;;5025778;28;20300;-61
2023/01/27 11:32:37;;;;;;;3.83;2.77;;;5.20;99.90;;;;;;5012989;28;20225;-63
2023/01/27 11:35:09;;;;;;;3.23;2.20;;;5.20;99.90;;;;;;5026413;28;20273;-60
2023/01/27 11:37:47;;;;;;;3.73;2.10;;;5.20;99.90;;;;;;5026993;28;20233;-62
2023/01/27 11:40:50;;;;;;;4.03;2.57;;;5.20;99.90;;;;;;5027092;28;20206;-61
2023/01/27 11:43:24;;;;;;;3.60;2.33;;;5.40;99.90;;;;;;4993595;28;20200;-61
2023/01/27 11:45:56;;;;;;;2.57;2.20;;;5.40;99.90;;;;;;5027336;28;20196;-61
2023/01/27 11:48:23;;;;;;;3.80;2.77;;;5.30;99.90;;;;;;5025558;28;20273;-60
2023/01/27 11:50:50;;;;;;;4.13;2.87;;;5.40;99.90;;;;;;5026608;28;20227;-60
2023/01/27 11:53:29;;;;;;;4.63;2.50;;;5.30;99.90;;;;;;5020727;28;20217;-60
2023/01/27 11:56:05;;;;;;;4.30;2.93;;;5.30;99.90;;;;;;5023519;28;20731;-59
2023/01/27 11:58:42;;;;;;;4.13;2.53;;;5.20;99.90;;;;;;5037325;28;20359;-59
2023/01/27 12:01:16;;;;;;;2.83;2.53;;;5.20;99.90;;;;;;5032634;28;20590;-60
2023/01/27 12:03:58;;;;;;;3.60;2.63;;;5.30;99.90;;;;;;5037976;28;20203;-59
2023/01/27 12:06:43;;;;;;;3.03;2.37;;;5.40;99.90;;;;;;5037208;28;20229;-60
2023/01/27 12:09:32;;;;;;;2.33;2.13;;;5.50;99.90;;;;;;5020248;28;20590;-59
2023/01/27 12:12:12;;;;;;;3.67;2.57;;;5.40;99.90;;;;;;5038930;28;20228;-59
2023/01/27 12:14:49;;;;;;;4.07;2.63;;;5.30;99.90;;;;;;5038196;28;20504;-59
2023/01/27 12:17:47;;;;;;;4.97;3.13;;;5.40;99.90;;;;;;5038820;28;20198;-60
2023/01/27 12:20:57;;;;;;;4.70;2.60;;;5.40;99.90;;;;;;5037856;28;20206;-59
2023/01/27 12:23:33;;;;;;;4.10;2.97;;;5.30;99.90;;;;;;4956348;28;20275;-62
2023/01/27 12:26:06;;;;;;;3.20;2.50;;;5.30;99.90;;;;;;4950084;28;20206;-61
2023/01/27 12:28:38;;;;;;;3.97;2.87;;;5.40;99.90;;;;;;4940151;28;20328;-61
2023/01/27 12:31:09;;;;;;;3.77;2.80;;;5.30;99.90;;;;;;4954181;28;20264;-61
2023/01/27 12:33:41;;;;;;;5.07;3.27;;;5.30;99.90;;;;;;4957250;28;20218;-63
2023/01/27 12:36:15;;;;;;;3.17;2.40;;;5.20;99.90;;;;;;4957802;28;20322;-63
2023/01/27 12:38:55;;;;;;;7.13;3.70;;;5.20;99.90;;;;;;4940731;28;20293;-61
2023/01/27 12:41:29;;;;;;;4.07;2.90;;;5.30;99.90;;;;;;4942107;28;20291;-61
2023/01/27 12:44:06;;;;;;;4.33;2.80;;;5.30;99.90;;;;;;4954963;28;20208;-61
2023/01/27 12:46:33;;;;;;;3.20;2.63;;;5.30;99.90;;;;;;4944992;28;20296;-61
2023/01/27 12:49:12;;;;;;;5.13;3.33;;;5.20;99.90;;;;;;4947932;28;20290;-62
2023/01/27 12:51:49;;;;;;;4.30;3.13;;;5.20;99.90;;;;;;4949010;28;20213;-61
2023/01/27 12:54:26;;;;;;;3.23;2.63;;;5.40;99.90;;;;;;4943913;28;20286;-61
2023/01/27 12:56:59;;;;;;;9.10;2.80;;;5.40;99.90;;;;;;4959931;28;20293;-61
2023/01/27 12:59:26;;;;;;;5.60;2.90;;;5.30;99.90;;;;;;5025933;28;20246;-63
2023/01/27 13:01:58;;;;;;;3.73;2.70;;;5.40;99.90;;;;;;5025429;28;20219;-61
2023/01/27 13:04:26;;;;;;;3.00;2.60;;;5.40;99.90;;;;;;5026731;28;20211;-61
2023/01/27 13:06:54;;;;;;;3.37;2.57;;;5.40;99.90;;;;;;5026758;28;20219;-61
2023/01/27 13:09:38;;;;;;;3.00;2.37;;;5.30;99.90;;;;;;5023588;28;20679;-61
2023/01/27 13:12:19;;;;;;;5.93;2.23;;;5.40;99.90;;;;;;5028800;28;21342;-61
2023/01/27 13:14:57;;;;;;;4.47;2.83;;;5.50;99.90;;;;;;5023668;28;20240;-63
2023/01/27 13:17:34;;;;;;;3.07;2.20;;;5.40;99.90;;;;;;5022930;28;20403;-63
2023/01/27 13:20:30;;;;;;;3.07;2.33;;;5.40;99.90;;;;;;5022757;28;20252;-63
2023/01/27 13:23:00;;;;;;;3.43;2.40;;;5.40;99.90;;;;;;5026710;28;20206;-61
2023/01/27 13:25:44;;;;;;;3.13;2.70;;;5.50;99.90;;;;;;5028123;28;20203;-61
2023/01/27 13:28:19;;;;;;;3.80;2.70;;;5.50;99.90;;;;;;5025218;28;20210;-62
2023/01/27 13:30:50;;;;;;;3.70;2.40;;;5.50;99.90;;;;;;5025856;28;20735;-61
2023/01/27 13:33:52;;;;;;;4.33;2.70;;;5.50;99.90;;;;;;5010656;28;20232;-59
2023/01/27 13:36:37;;;;;;;4.00;2.43;;;5.50;99.90;;;;;;5024026;28;20311;-62
2023/01/27 13:39:14;;;;;;;7.10;2.80;;;5.70;99.90;;;;;;5021849;28;20600;-59
2023/01/27 13:41:48;;;;;;;2.93;2.47;;;5.70;99.90;;;;;;5030178;28;20207;-59
2023/01/27 13:44:37;;;;;;;3.40;3.00;;;5.70;99.90;;;;;;5025581;28;20682;-59
2023/01/27 13:47:23;;;;;;;4.17;2.73;;;5.70;99.90;;;;;;5019568;28;20693;-59
2023/01/27 13:50:13;;;;;;;3.13;2.50;;;5.70;99.90;;;;;;5016574;28;20238;-61
2023/01/27 13:52:40;;;;;;;4.37;2.37;;;5.80;99.90;;;;;;5017743;28;20290;-61
2023/01/27 13:55:12;;;;;;;3.33;2.50;;;5.80;99.90;;;;;;5019597;28;20654;-60
2023/01/27 13:57:45;;;;;;;2.97;2.47;;;5.80;99.90;;;;;;5019638;28;20206;-60
2023/01/27 14:00:20;;;;;;;4.03;2.60;;;5.80;99.90;;;;;;5018187;28;20285;-59